sensor_id;sensor_type;location;lat;lon;timestamp;temperature;humidity
45549;DHT22;31270;48.328;10.096;2023-12-14T00:01:16;5.00;99.90
45549;DHT22;31270;48.328;10.096;2023-12-14T00:03:41;5.00;99.90
45549;DHT22;31270;48.328;10.096;2023-12-14T00:06:12;4.90;99.90
45549;DHT22;31270;48.328;10.096;2023-12-14T00:08:38;4.90;99.90
45549;DHT22;31270;48.328;10.096;2023-12-14T00:11:09;4.80;99.90
45549;DHT22;31270;48.328;10.096;2023-12-14T00:13:35;4.80;99.90
45549;DHT22;31270;48.328;10.096;2023-12-14T00:16:01;4.80;99.90
45549;DHT22;31270;48.328;10.096;2023-12-14T00:18:27;4.90;99.90
45549;DHT22;31270;48.328;10.096;2023-12-14T00:20:53;4.80;99.90
45549;DHT22;31270;48.328;10.096;2023-12-14T00:23:19;4.80;99.90
45549;DHT22;31270;48.328;10.096;2023-12-14T00:25:45;4.80;99.90
45549;DHT22;31270;48.328;10.096;2023-12-14T00:28:11;4.70;99.90
45549;DHT22;31270;48.328;10.096;2023-12-14T00:30:36;4.80;99.90
45549;DHT22;31270;48.328;10.096;2023-12-14T00:33:03;4.70;99.90
45549;DHT22;31270;48.328;10.096;2023-12-14T00:35:28;4.80;99.90
45549;DHT22;31270;48.328;10.096;2023-12-14T00:37:54;4.80;99.90
45549;DHT22;31270;48.328;10.096;2023-12-14T00:40:19;4.80;99.90
45549;DHT22;31270;48.328;10.096;2023-12-14T00:42:45;4.80;99.90
45549;DHT22;31270;48.328;10.096;2023-12-14T00:45:11;4.80;99.90
45549;DHT22;31270;48.328;10.096;2023-12-14T00:47:36;4.80;99.90
45549;DHT22;31270;48.328;10.096;2023-12-14T00:50:02;4.80;99.90
45549;DHT22;31270;48.328;10.096;2023-12-14T00:52:28;4.80;99.90
45549;DHT22;31270;48.328;10.096;2023-12-14T00:54:53;5.00;99.90
45549;DHT22;31270;48.328;10.096;2023-12-14T00:57:19;4.80;99.90
45549;DHT22;31270;48.328;10.096;2023-12-14T00:59:45;4.80;99.90
45549;DHT22;31270;48.328;10.096;2023-12-14T01:02:11;4.80;99.90
45549;DHT22;31270;48.328;10.096;2023-12-14T01:04:37;4.80;99.90
45549;DHT22;31270;48.328;10.096;2023-12-14T01:07:03;4.80;99.90
45549;DHT22;31270;48.328;10.096;2023-12-14T01:09:29;4.70;99.90
45549;DHT22;31270;48.328;10.096;2023-12-14T01:11:54;4.70;99.90
45549;DHT22;31270;48.328;10.096;2023-12-14T01:14:20;4.70;99.90
45549;DHT22;31270;48.328;10.096;2023-12-14T01:16:46;4.70;99.90
45549;DHT22;31270;48.328;10.096;2023-12-14T01:19:11;4.70;99.90
45549;DHT22;31270;48.328;10.096;2023-12-14T01:21:37;4.60;99.90
45549;DHT22;31270;48.328;10.096;2023-12-14T01:24:02;4.70;99.90
45549;DHT22;31270;48.328;10.096;2023-12-14T01:26:28;4.70;99.90
45549;DHT22;31270;48.328;10.096;2023-12-14T01:28:55;4.70;99.90
45549;DHT22;31270;48.328;10.096;2023-12-14T01:31:28;4.70;99.90
45549;DHT22;31270;48.328;10.096;2023-12-14T01:33:53;4.70;99.90
45549;DHT22;31270;48.328;10.096;2023-12-14T01:36:23;4.70;99.90
45549;DHT22;31270;48.328;10.096;2023-12-14T01:38:49;4.80;99.90
45549;DHT22;31270;48.328;10.096;2023-12-14T01:41:15;4.80;99.90
45549;DHT22;31270;48.328;10.096;2023-12-14T01:43:41;4.80;99.90
45549;DHT22;31270;48.328;10.096;2023-12-14T01:46:06;4.70;99.90
45549;DHT22;31270;48.328;10.096;2023-12-14T01:48:32;4.70;99.90
45549;DHT22;31270;48.328;10.096;2023-12-14T01:50:57;4.80;99.90
45549;DHT22;31270;48.328;10.096;2023-12-14T01:53:23;4.80;99.90
45549;DHT22;31270;48.328;10.096;2023-12-14T01:55:49;4.80;99.90
45549;DHT22;31270;48.328;10.096;2023-12-14T01:58:14;4.70;99.90
45549;DHT22;31270;48.328;10.096;2023-12-14T02:01:08;4.80;99.90
45549;DHT22;31270;48.328;10.096;2023-12-14T02:03:29;4.70;99.90
45549;DHT22;31270;48.328;10.096;2023-12-14T02:05:55;4.80;99.90
45549;DHT22;31270;48.328;10.096;2023-12-14T02:08:23;4.80;99.90
45549;DHT22;31270;48.328;10.096;2023-12-14T02:10:49;4.70;99.90
45549;DHT22;31270;48.328;10.096;2023-12-14T02:13:15;4.80;99.90
45549;DHT22;31270;48.328;10.096;2023-12-14T02:15:41;4.80;99.90
45549;DHT22;31270;48.328;10.096;2023-12-14T02:18:07;4.80;99.90
45549;DHT22;31270;48.328;10.096;2023-12-14T02:20:33;4.80;99.90
45549;DHT22;31270;48.328;10.096;2023-12-14T02:22:58;4.90;99.90
45549;DHT22;31270;48.328;10.096;2023-12-14T02:25:24;4.80;99.90
45549;DHT22;31270;48.328;10.096;2023-12-14T02:27:50;4.80;99.90
45549;DHT22;31270;48.328;10.096;2023-12-14T02:30:18;4.80;99.90
45549;DHT22;31270;48.328;10.096;2023-12-14T02:32:43;4.90;99.90
45549;DHT22;31270;48.328;10.096;2023-12-14T02:35:09;4.90;99.90
45549;DHT22;31270;48.328;10.096;2023-12-14T02:37:35;4.80;99.90
45549;DHT22;31270;48.328;10.096;2023-12-14T02:40:06;4.80;99.90
45549;DHT22;31270;48.328;10.096;2023-12-14T02:42:33;4.80;99.90
45549;DHT22;31270;48.328;10.096;2023-12-14T02:44:59;4.80;99.90
45549;DHT22;31270;48.328;10.096;2023-12-14T02:47:25;4.90;99.90
45549;DHT22;31270;48.328;10.096;2023-12-14T02:49:50;4.80;99.90
45549;DHT22;31270;48.328;10.096;2023-12-14T02:52:16;4.90;99.90
45549;DHT22;31270;48.328;10.096;2023-12-14T02:54:41;5.00;99.90
45549;DHT22;31270;48.328;10.096;2023-12-14T02:57:07;4.90;99.90
45549;DHT22;31270;48.328;10.096;2023-12-14T02:59:33;4.90;99.90
45549;DHT22;31270;48.328;10.096;2023-12-14T03:01:58;4.90;99.90
45549;DHT22;31270;48.328;10.096;2023-12-14T03:04:25;4.90;99.90
45549;DHT22;31270;48.328;10.096;2023-12-14T03:06:50;4.80;99.90
45549;DHT22;31270;48.328;10.096;2023-12-14T03:09:16;4.90;99.90
45549;DHT22;31270;48.328;10.096;2023-12-14T03:11:41;4.80;99.90
45549;DHT22;31270;48.328;10.096;2023-12-14T03:14:07;4.90;99.90
45549;DHT22;31270;48.328;10.096;2023-12-14T03:16:33;4.90;99.90
45549;DHT22;31270;48.328;10.096;2023-12-14T03:19:01;4.80;99.90
45549;DHT22;31270;48.328;10.096;2023-12-14T03:21:26;4.70;99.90
45549;DHT22;31270;48.328;10.096;2023-12-14T03:23:52;4.70;99.90
45549;DHT22;31270;48.328;10.096;2023-12-14T03:26:18;4.60;99.90
45549;DHT22;31270;48.328;10.096;2023-12-14T03:28:43;4.60;99.90
45549;DHT22;31270;48.328;10.096;2023-12-14T03:31:12;4.60;99.90
45549;DHT22;31270;48.328;10.096;2023-12-14T03:33:39;4.60;99.90
45549;DHT22;31270;48.328;10.096;2023-12-14T03:36:05;4.50;99.90
45549;DHT22;31270;48.328;10.096;2023-12-14T03:38:34;4.50;99.90
45549;DHT22;31270;48.328;10.096;2023-12-14T03:40:59;4.50;99.90
45549;DHT22;31270;48.328;10.096;2023-12-14T03:43:26;4.40;99.90
45549;DHT22;31270;48.328;10.096;2023-12-14T03:45:52;4.40;99.90
45549;DHT22;31270;48.328;10.096;2023-12-14T03:48:17;4.40;99.90
45549;DHT22;31270;48.328;10.096;2023-12-14T03:50:43;4.40;99.90
45549;DHT22;31270;48.328;10.096;2023-12-14T03:53:09;4.40;99.90
45549;DHT22;31270;48.328;10.096;2023-12-14T03:55:35;4.30;99.90
45549;DHT22;31270;48.328;10.096;2023-12-14T03:58:00;4.30;99.90
45549;DHT22;31270;48.328;10.096;2023-12-14T04:00:26;4.30;99.90
45549;DHT22;31270;48.328;10.096;2023-12-14T04:02:51;4.30;99.90
45549;DHT22;31270;48.328;10.096;2023-12-14T04:05:17;4.40;99.90
45549;DHT22;31270;48.328;10.096;2023-12-14T04:07:43;4.40;99.90
45549;DHT22;31270;48.328;10.096;2023-12-14T04:10:10;4.40;99.90
45549;DHT22;31270;48.328;10.096;2023-12-14T04:12:37;4.40;99.90
45549;DHT22;31270;48.328;10.096;2023-12-14T04:15:07;4.50;99.90
45549;DHT22;31270;48.328;10.096;2023-12-14T04:17:33;4.50;99.90
45549;DHT22;31270;48.328;10.096;2023-12-14T04:19:59;4.50;99.90
45549;DHT22;31270;48.328;10.096;2023-12-14T04:22:25;4.50;99.90
45549;DHT22;31270;48.328;10.096;2023-12-14T04:24:51;4.60;99.90
45549;DHT22;31270;48.328;10.096;2023-12-14T04:27:17;4.50;99.90
45549;DHT22;31270;48.328;10.096;2023-12-14T04:29:43;4.60;99.90
45549;DHT22;31270;48.328;10.096;2023-12-14T04:32:09;4.60;99.90
45549;DHT22;31270;48.328;10.096;2023-12-14T04:34:35;4.60;99.90
45549;DHT22;31270;48.328;10.096;2023-12-14T04:37:01;4.70;99.90
45549;DHT22;31270;48.328;10.096;2023-12-14T04:39:27;4.60;99.90
45549;DHT22;31270;48.328;10.096;2023-12-14T04:41:53;4.60;99.90
45549;DHT22;31270;48.328;10.096;2023-12-14T04:44:19;4.60;99.90
45549;DHT22;31270;48.328;10.096;2023-12-14T04:46:49;4.60;99.90
45549;DHT22;31270;48.328;10.096;2023-12-14T04:49:16;4.70;99.90
45549;DHT22;31270;48.328;10.096;2023-12-14T04:51:42;4.70;99.90
45549;DHT22;31270;48.328;10.096;2023-12-14T04:54:08;4.70;99.90
45549;DHT22;31270;48.328;10.096;2023-12-14T04:56:33;4.70;99.90
45549;DHT22;31270;48.328;10.096;2023-12-14T04:58:59;4.70;99.90
45549;DHT22;31270;48.328;10.096;2023-12-14T05:01:25;4.70;99.90
45549;DHT22;31270;48.328;10.096;2023-12-14T05:03:52;4.70;99.90
45549;DHT22;31270;48.328;10.096;2023-12-14T05:06:18;4.70;99.90
45549;DHT22;31270;48.328;10.096;2023-12-14T05:08:43;4.80;99.90
45549;DHT22;31270;48.328;10.096;2023-12-14T05:11:09;4.80;99.90
45549;DHT22;31270;48.328;10.096;2023-12-14T05:13:35;4.80;99.90
45549;DHT22;31270;48.328;10.096;2023-12-14T05:16:04;4.80;99.90
45549;DHT22;31270;48.328;10.096;2023-12-14T05:18:30;4.80;99.90
45549;DHT22;31270;48.328;10.096;2023-12-14T05:21:04;4.90;99.90
45549;DHT22;31270;48.328;10.096;2023-12-14T05:23:33;4.90;99.90
45549;DHT22;31270;48.328;10.096;2023-12-14T05:25:59;4.80;99.90
45549;DHT22;31270;48.328;10.096;2023-12-14T05:28:25;4.80;99.90
45549;DHT22;31270;48.328;10.096;2023-12-14T05:30:50;4.90;99.90
45549;DHT22;31270;48.328;10.096;2023-12-14T05:33:22;4.90;99.90
45549;DHT22;31270;48.328;10.096;2023-12-14T05:35:48;4.80;99.90
45549;DHT22;31270;48.328;10.096;2023-12-14T05:38:14;4.90;99.90
45549;DHT22;31270;48.328;10.096;2023-12-14T05:40:39;4.80;99.90
45549;DHT22;31270;48.328;10.096;2023-12-14T05:43:05;4.90;99.90
45549;DHT22;31270;48.328;10.096;2023-12-14T05:45:30;4.90;99.90
45549;DHT22;31270;48.328;10.096;2023-12-14T05:47:56;4.90;99.90
45549;DHT22;31270;48.328;10.096;2023-12-14T05:50:22;4.90;99.90
45549;DHT22;31270;48.328;10.096;2023-12-14T05:52:47;4.90;99.90
45549;DHT22;31270;48.328;10.096;2023-12-14T05:55:13;4.90;99.90
45549;DHT22;31270;48.328;10.096;2023-12-14T05:57:39;5.00;99.90
45549;DHT22;31270;48.328;10.096;2023-12-14T06:00:06;5.00;99.90
45549;DHT22;31270;48.328;10.096;2023-12-14T06:02:33;5.00;99.90
45549;DHT22;31270;48.328;10.096;2023-12-14T06:04:58;5.00;99.90
45549;DHT22;31270;48.328;10.096;2023-12-14T06:07:24;4.90;99.90
45549;DHT22;31270;48.328;10.096;2023-12-14T06:09:50;4.90;99.90
45549;DHT22;31270;48.328;10.096;2023-12-14T06:12:16;4.90;99.90
45549;DHT22;31270;48.328;10.096;2023-12-14T06:14:41;5.00;99.90
45549;DHT22;31270;48.328;10.096;2023-12-14T06:17:07;5.00;99.90
45549;DHT22;31270;48.328;10.096;2023-12-14T06:19:32;4.90;99.90
45549;DHT22;31270;48.328;10.096;2023-12-14T06:21:58;4.90;99.90
45549;DHT22;31270;48.328;10.096;2023-12-14T06:24:24;4.90;99.90
45549;DHT22;31270;48.328;10.096;2023-12-14T06:26:49;4.90;99.90
45549;DHT22;31270;48.328;10.096;2023-12-14T06:29:15;4.90;99.90
45549;DHT22;31270;48.328;10.096;2023-12-14T06:31:45;4.90;99.90
45549;DHT22;31270;48.328;10.096;2023-12-14T06:34:23;5.00;99.90
45549;DHT22;31270;48.328;10.096;2023-12-14T06:36:48;5.00;99.90
45549;DHT22;31270;48.328;10.096;2023-12-14T06:39:14;5.00;99.90
45549;DHT22;31270;48.328;10.096;2023-12-14T06:41:39;5.00;99.90
45549;DHT22;31270;48.328;10.096;2023-12-14T06:44:05;5.00;99.90
45549;DHT22;31270;48.328;10.096;2023-12-14T06:46:31;4.90;99.90
45549;DHT22;31270;48.328;10.096;2023-12-14T06:48:56;5.00;99.90
45549;DHT22;31270;48.328;10.096;2023-12-14T06:51:22;5.00;99.90
45549;DHT22;31270;48.328;10.096;2023-12-14T06:53:48;4.90;99.90
45549;DHT22;31270;48.328;10.096;2023-12-14T06:56:14;5.00;99.90
45549;DHT22;31270;48.328;10.096;2023-12-14T06:58:43;4.90;99.90
45549;DHT22;31270;48.328;10.096;2023-12-14T07:01:16;4.90;99.90
45549;DHT22;31270;48.328;10.096;2023-12-14T07:03:42;4.90;99.90
45549;DHT22;31270;48.328;10.096;2023-12-14T07:06:16;5.00;99.90
45549;DHT22;31270;48.328;10.096;2023-12-14T07:08:48;5.00;99.90
45549;DHT22;31270;48.328;10.096;2023-12-14T07:11:14;5.00;99.90
45549;DHT22;31270;48.328;10.096;2023-12-14T07:13:40;4.90;99.90
45549;DHT22;31270;48.328;10.096;2023-12-14T07:16:07;5.00;99.90
45549;DHT22;31270;48.328;10.096;2023-12-14T07:18:38;5.00;99.90
45549;DHT22;31270;48.328;10.096;2023-12-14T07:21:04;5.00;99.90
45549;DHT22;31270;48.328;10.096;2023-12-14T07:23:30;5.00;99.90
45549;DHT22;31270;48.328;10.096;2023-12-14T07:26:08;5.00;99.90
45549;DHT22;31270;48.328;10.096;2023-12-14T07:28:40;5.00;99.90
45549;DHT22;31270;48.328;10.096;2023-12-14T07:31:08;5.00;99.90
45549;DHT22;31270;48.328;10.096;2023-12-14T07:33:33;5.00;99.90
45549;DHT22;31270;48.328;10.096;2023-12-14T07:36:01;5.10;99.90
45549;DHT22;31270;48.328;10.096;2023-12-14T07:38:28;5.00;99.90
45549;DHT22;31270;48.328;10.096;2023-12-14T07:40:54;5.10;99.90
45549;DHT22;31270;48.328;10.096;2023-12-14T07:43:20;5.10;99.90
45549;DHT22;31270;48.328;10.096;2023-12-14T07:45:47;5.10;99.90
45549;DHT22;31270;48.328;10.096;2023-12-14T07:48:12;5.10;99.90
45549;DHT22;31270;48.328;10.096;2023-12-14T07:50:38;5.10;99.90
45549;DHT22;31270;48.328;10.096;2023-12-14T07:53:03;5.10;99.90
45549;DHT22;31270;48.328;10.096;2023-12-14T07:55:31;5.20;99.90
45549;DHT22;31270;48.328;10.096;2023-12-14T07:57:56;5.20;99.90
45549;DHT22;31270;48.328;10.096;2023-12-14T08:00:22;5.20;99.90
45549;DHT22;31270;48.328;10.096;2023-12-14T08:02:47;5.20;99.90
45549;DHT22;31270;48.328;10.096;2023-12-14T08:05:13;5.30;99.90
45549;DHT22;31270;48.328;10.096;2023-12-14T08:07:39;5.30;99.90
45549;DHT22;31270;48.328;10.096;2023-12-14T08:10:05;5.30;99.90
45549;DHT22;31270;48.328;10.096;2023-12-14T08:12:30;5.30;99.90
45549;DHT22;31270;48.328;10.096;2023-12-14T08:14:56;5.30;99.90
45549;DHT22;31270;48.328;10.096;2023-12-14T08:17:25;5.30;99.90
45549;DHT22;31270;48.328;10.096;2023-12-14T08:19:56;5.30;99.90
45549;DHT22;31270;48.328;10.096;2023-12-14T08:22:22;5.40;99.90
45549;DHT22;31270;48.328;10.096;2023-12-14T08:24:53;5.30;99.90
45549;DHT22;31270;48.328;10.096;2023-12-14T08:27:19;5.40;99.90
45549;DHT22;31270;48.328;10.096;2023-12-14T08:29:44;5.50;99.90
45549;DHT22;31270;48.328;10.096;2023-12-14T08:32:17;5.50;99.90
45549;DHT22;31270;48.328;10.096;2023-12-14T08:34:43;5.50;99.90
45549;DHT22;31270;48.328;10.096;2023-12-14T08:37:09;5.50;99.90
45549;DHT22;31270;48.328;10.096;2023-12-14T08:39:34;5.50;99.90
45549;DHT22;31270;48.328;10.096;2023-12-14T08:42:00;5.50;99.90
45549;DHT22;31270;48.328;10.096;2023-12-14T08:44:26;5.50;99.90
45549;DHT22;31270;48.328;10.096;2023-12-14T08:46:52;5.50;99.90
45549;DHT22;31270;48.328;10.096;2023-12-14T08:49:18;5.50;99.90
45549;DHT22;31270;48.328;10.096;2023-12-14T08:51:44;5.50;99.90
45549;DHT22;31270;48.328;10.096;2023-12-14T08:54:14;5.50;99.90
45549;DHT22;31270;48.328;10.096;2023-12-14T08:56:40;5.50;99.90
45549;DHT22;31270;48.328;10.096;2023-12-14T08:59:05;5.50;99.90
45549;DHT22;31270;48.328;10.096;2023-12-14T09:01:31;5.50;99.90
45549;DHT22;31270;48.328;10.096;2023-12-14T09:03:57;5.60;99.90
45549;DHT22;31270;48.328;10.096;2023-12-14T09:06:23;5.50;99.90
45549;DHT22;31270;48.328;10.096;2023-12-14T09:08:48;5.60;99.90
45549;DHT22;31270;48.328;10.096;2023-12-14T09:11:23;5.60;99.90
45549;DHT22;31270;48.328;10.096;2023-12-14T09:13:49;5.60;99.90
45549;DHT22;31270;48.328;10.096;2023-12-14T09:16:23;5.60;99.90
45549;DHT22;31270;48.328;10.096;2023-12-14T09:18:49;5.60;99.90
45549;DHT22;31270;48.328;10.096;2023-12-14T09:21:14;5.70;99.90
45549;DHT22;31270;48.328;10.096;2023-12-14T09:23:41;5.70;99.90
45549;DHT22;31270;48.328;10.096;2023-12-14T09:26:06;5.80;99.90
45549;DHT22;31270;48.328;10.096;2023-12-14T09:28:32;5.80;99.90
45549;DHT22;31270;48.328;10.096;2023-12-14T09:31:01;5.80;99.90
45549;DHT22;31270;48.328;10.096;2023-12-14T09:33:26;5.80;99.90
45549;DHT22;31270;48.328;10.096;2023-12-14T09:35:52;5.80;99.90
45549;DHT22;31270;48.328;10.096;2023-12-14T09:38:17;5.80;99.90
45549;DHT22;31270;48.328;10.096;2023-12-14T09:40:44;5.90;99.90
45549;DHT22;31270;48.328;10.096;2023-12-14T09:43:10;5.90;99.90
45549;DHT22;31270;48.328;10.096;2023-12-14T09:45:41;6.00;99.90
45549;DHT22;31270;48.328;10.096;2023-12-14T09:48:11;6.00;99.90
45549;DHT22;31270;48.328;10.096;2023-12-14T09:50:39;6.10;99.90
45549;DHT22;31270;48.328;10.096;2023-12-14T09:53:11;6.00;99.90
45549;DHT22;31270;48.328;10.096;2023-12-14T09:55:37;6.10;99.90
45549;DHT22;31270;48.328;10.096;2023-12-14T09:58:03;6.10;99.90
45549;DHT22;31270;48.328;10.096;2023-12-14T10:00:37;6.10;99.90
45549;DHT22;31270;48.328;10.096;2023-12-14T10:03:21;6.20;99.90
45549;DHT22;31270;48.328;10.096;2023-12-14T10:05:48;6.30;99.90
45549;DHT22;31270;48.328;10.096;2023-12-14T10:08:15;6.30;99.90
45549;DHT22;31270;48.328;10.096;2023-12-14T10:10:42;6.40;99.90
45549;DHT22;31270;48.328;10.096;2023-12-14T10:13:08;6.50;99.90
45549;DHT22;31270;48.328;10.096;2023-12-14T10:15:45;6.60;99.90
45549;DHT22;31270;48.328;10.096;2023-12-14T10:18:22;6.60;99.90
45549;DHT22;31270;48.328;10.096;2023-12-14T10:20:51;6.70;99.90
45549;DHT22;31270;48.328;10.096;2023-12-14T10:23:18;6.70;99.90
45549;DHT22;31270;48.328;10.096;2023-12-14T10:25:44;6.80;99.90
45549;DHT22;31270;48.328;10.096;2023-12-14T10:28:12;6.80;99.90
45549;DHT22;31270;48.328;10.096;2023-12-14T10:30:39;6.90;99.90
45549;DHT22;31270;48.328;10.096;2023-12-14T10:33:05;6.90;99.90
45549;DHT22;31270;48.328;10.096;2023-12-14T10:35:30;6.90;99.90
45549;DHT22;31270;48.328;10.096;2023-12-14T10:38:03;6.90;99.90
45549;DHT22;31270;48.328;10.096;2023-12-14T10:40:31;7.00;99.90
45549;DHT22;31270;48.328;10.096;2023-12-14T10:42:59;7.10;99.90
45549;DHT22;31270;48.328;10.096;2023-12-14T10:45:31;7.20;99.90
45549;DHT22;31270;48.328;10.096;2023-12-14T10:47:59;7.10;99.90
45549;DHT22;31270;48.328;10.096;2023-12-14T10:50:28;7.20;99.90
45549;DHT22;31270;48.328;10.096;2023-12-14T10:52:54;7.20;99.90
45549;DHT22;31270;48.328;10.096;2023-12-14T10:55:31;7.20;99.90
45549;DHT22;31270;48.328;10.096;2023-12-14T10:57:58;7.30;99.90
45549;DHT22;31270;48.328;10.096;2023-12-14T11:00:24;7.40;99.90
45549;DHT22;31270;48.328;10.096;2023-12-14T11:02:51;7.50;99.90
45549;DHT22;31270;48.328;10.096;2023-12-14T11:05:18;7.60;99.90
45549;DHT22;31270;48.328;10.096;2023-12-14T11:08:04;7.60;99.90
45549;DHT22;31270;48.328;10.096;2023-12-14T11:10:53;7.60;99.90
45549;DHT22;31270;48.328;10.096;2023-12-14T11:13:23;7.70;99.90
45549;DHT22;31270;48.328;10.096;2023-12-14T11:15:51;7.60;99.90
45549;DHT22;31270;48.328;10.096;2023-12-14T11:26:03;7.50;99.90
45549;DHT22;31270;48.328;10.096;2023-12-14T11:28:39;7.60;99.90
45549;DHT22;31270;48.328;10.096;2023-12-14T11:31:12;7.70;99.90
45549;DHT22;31270;48.328;10.096;2023-12-14T11:33:51;7.70;99.90
45549;DHT22;31270;48.328;10.096;2023-12-14T11:36:16;7.60;99.90
45549;DHT22;31270;48.328;10.096;2023-12-14T11:38:43;7.60;99.90
45549;DHT22;31270;48.328;10.096;2023-12-14T11:41:09;7.70;99.90
45549;DHT22;31270;48.328;10.096;2023-12-14T11:43:42;7.70;99.90
45549;DHT22;31270;48.328;10.096;2023-12-14T11:46:08;7.90;99.90
45549;DHT22;31270;48.328;10.096;2023-12-14T11:48:34;7.60;99.90
45549;DHT22;31270;48.328;10.096;2023-12-14T11:50:59;7.70;99.90
45549;DHT22;31270;48.328;10.096;2023-12-14T11:53:27;7.70;99.90
45549;DHT22;31270;48.328;10.096;2023-12-14T11:55:53;7.80;99.90
45549;DHT22;31270;48.328;10.096;2023-12-14T11:58:19;7.90;99.90
45549;DHT22;31270;48.328;10.096;2023-12-14T12:00:44;7.70;99.90
45549;DHT22;31270;48.328;10.096;2023-12-14T12:03:16;7.70;99.90
45549;DHT22;31270;48.328;10.096;2023-12-14T12:05:44;7.80;99.90
45549;DHT22;31270;48.328;10.096;2023-12-14T12:08:12;7.70;99.90
45549;DHT22;31270;48.328;10.096;2023-12-14T12:10:39;7.80;99.90
45549;DHT22;31270;48.328;10.096;2023-12-14T12:13:17;7.80;99.90
45549;DHT22;31270;48.328;10.096;2023-12-14T12:15:43;7.80;99.90
45549;DHT22;31270;48.328;10.096;2023-12-14T12:18:11;7.80;99.90
45549;DHT22;31270;48.328;10.096;2023-12-14T12:20:37;7.90;99.90
45549;DHT22;31270;48.328;10.096;2023-12-14T12:23:03;7.90;99.90
45549;DHT22;31270;48.328;10.096;2023-12-14T12:25:32;8.00;99.90
45549;DHT22;31270;48.328;10.096;2023-12-14T12:27:59;8.00;99.90
45549;DHT22;31270;48.328;10.096;2023-12-14T12:30:25;8.00;99.90
45549;DHT22;31270;48.328;10.096;2023-12-14T12:32:51;8.00;99.90
45549;DHT22;31270;48.328;10.096;2023-12-14T12:35:22;8.10;99.90
45549;DHT22;31270;48.328;10.096;2023-12-14T12:37:49;8.00;99.90
45549;DHT22;31270;48.328;10.096;2023-12-14T12:40:20;8.00;99.90
45549;DHT22;31270;48.328;10.096;2023-12-14T12:42:46;8.00;99.90
45549;DHT22;31270;48.328;10.096;2023-12-14T12:45:14;8.00;99.90
45549;DHT22;31270;48.328;10.096;2023-12-14T12:47:41;8.00;99.90
45549;DHT22;31270;48.328;10.096;2023-12-14T12:50:07;8.10;99.90
45549;DHT22;31270;48.328;10.096;2023-12-14T12:52:33;8.10;99.90
45549;DHT22;31270;48.328;10.096;2023-12-14T12:54:58;8.20;99.90
45549;DHT22;31270;48.328;10.096;2023-12-14T12:57:24;8.20;99.90
45549;DHT22;31270;48.328;10.096;2023-12-14T12:59:49;8.20;99.90
45549;DHT22;31270;48.328;10.096;2023-12-14T13:02:15;8.30;99.90
45549;DHT22;31270;48.328;10.096;2023-12-14T13:04:41;8.30;99.90
45549;DHT22;31270;48.328;10.096;2023-12-14T13:07:06;8.40;99.90
45549;DHT22;31270;48.328;10.096;2023-12-14T13:09:32;8.40;99.90
45549;DHT22;31270;48.328;10.096;2023-12-14T13:11:58;8.60;99.90
45549;DHT22;31270;48.328;10.096;2023-12-14T13:14:23;8.50;99.90
45549;DHT22;31270;48.328;10.096;2023-12-14T13:16:49;8.50;99.90
45549;DHT22;31270;48.328;10.096;2023-12-14T13:19:15;8.40;99.90
45549;DHT22;31270;48.328;10.096;2023-12-14T13:21:41;8.30;99.90
45549;DHT22;31270;48.328;10.096;2023-12-14T13:24:08;8.20;99.90
45549;DHT22;31270;48.328;10.096;2023-12-14T13:26:33;8.20;99.90
45549;DHT22;31270;48.328;10.096;2023-12-14T13:28:59;8.10;99.90
45549;DHT22;31270;48.328;10.096;2023-12-14T13:31:24;8.10;99.90
45549;DHT22;31270;48.328;10.096;2023-12-14T13:33:50;7.90;99.90
45549;DHT22;31270;48.328;10.096;2023-12-14T13:36:16;7.90;99.90
45549;DHT22;31270;48.328;10.096;2023-12-14T13:38:42;7.90;99.90
45549;DHT22;31270;48.328;10.096;2023-12-14T13:41:08;7.90;99.90
45549;DHT22;31270;48.328;10.096;2023-12-14T13:43:34;7.80;99.90
45549;DHT22;31270;48.328;10.096;2023-12-14T13:45:59;7.80;99.90
45549;DHT22;31270;48.328;10.096;2023-12-14T13:48:26;7.90;99.90
45549;DHT22;31270;48.328;10.096;2023-12-14T13:50:55;7.80;99.90
45549;DHT22;31270;48.328;10.096;2023-12-14T13:53:22;7.80;99.90
45549;DHT22;31270;48.328;10.096;2023-12-14T13:55:48;7.80;99.90
45549;DHT22;31270;48.328;10.096;2023-12-14T13:58:17;7.80;99.90
45549;DHT22;31270;48.328;10.096;2023-12-14T14:00:43;7.70;99.90
45549;DHT22;31270;48.328;10.096;2023-12-14T14:03:09;7.80;99.90
45549;DHT22;31270;48.328;10.096;2023-12-14T14:05:35;7.70;99.90
45549;DHT22;31270;48.328;10.096;2023-12-14T14:08:01;7.70;99.90
45549;DHT22;31270;48.328;10.096;2023-12-14T14:10:32;7.70;99.90
45549;DHT22;31270;48.328;10.096;2023-12-14T14:12:58;7.70;99.90
45549;DHT22;31270;48.328;10.096;2023-12-14T14:15:25;7.70;99.90
45549;DHT22;31270;48.328;10.096;2023-12-14T14:17:51;7.70;99.90
45549;DHT22;31270;48.328;10.096;2023-12-14T14:20:18;7.60;99.90
45549;DHT22;31270;48.328;10.096;2023-12-14T14:22:50;7.60;99.90
45549;DHT22;31270;48.328;10.096;2023-12-14T14:25:16;7.60;99.90
45549;DHT22;31270;48.328;10.096;2023-12-14T14:27:41;7.60;99.90
45549;DHT22;31270;48.328;10.096;2023-12-14T14:30:07;7.60;99.90
45549;DHT22;31270;48.328;10.096;2023-12-14T14:32:33;7.50;99.90
45549;DHT22;31270;48.328;10.096;2023-12-14T14:35:03;7.40;99.90
45549;DHT22;31270;48.328;10.096;2023-12-14T14:37:29;7.40;99.90
45549;DHT22;31270;48.328;10.096;2023-12-14T14:39:54;7.40;99.90
45549;DHT22;31270;48.328;10.096;2023-12-14T14:42:20;7.30;99.90
45549;DHT22;31270;48.328;10.096;2023-12-14T14:44:46;7.30;99.90
45549;DHT22;31270;48.328;10.096;2023-12-14T14:47:12;7.20;99.90
45549;DHT22;31270;48.328;10.096;2023-12-14T14:49:38;7.10;99.90
45549;DHT22;31270;48.328;10.096;2023-12-14T14:52:04;7.00;99.90
45549;DHT22;31270;48.328;10.096;2023-12-14T14:54:30;7.00;99.90
45549;DHT22;31270;48.328;10.096;2023-12-14T14:56:55;7.00;99.90
45549;DHT22;31270;48.328;10.096;2023-12-14T14:59:21;6.90;99.90
45549;DHT22;31270;48.328;10.096;2023-12-14T15:01:47;6.80;99.90
45549;DHT22;31270;48.328;10.096;2023-12-14T15:04:13;6.70;99.90
45549;DHT22;31270;48.328;10.096;2023-12-14T15:06:39;6.80;99.90
45549;DHT22;31270;48.328;10.096;2023-12-14T15:09:07;6.70;99.90
45549;DHT22;31270;48.328;10.096;2023-12-14T15:11:33;6.60;99.90
45549;DHT22;31270;48.328;10.096;2023-12-14T15:13:59;6.60;99.90
45549;DHT22;31270;48.328;10.096;2023-12-14T15:16:25;6.60;99.90
45549;DHT22;31270;48.328;10.096;2023-12-14T15:18:52;6.60;99.90
45549;DHT22;31270;48.328;10.096;2023-12-14T15:21:18;6.60;99.90
45549;DHT22;31270;48.328;10.096;2023-12-14T15:23:44;6.60;99.90
45549;DHT22;31270;48.328;10.096;2023-12-14T15:26:12;6.60;99.90
45549;DHT22;31270;48.328;10.096;2023-12-14T15:28:38;6.50;99.90
45549;DHT22;31270;48.328;10.096;2023-12-14T15:31:04;6.50;99.90
45549;DHT22;31270;48.328;10.096;2023-12-14T15:33:30;6.50;99.90
45549;DHT22;31270;48.328;10.096;2023-12-14T15:35:55;6.40;99.90